This is the latest recevied weather packets stored in our database for station/object R6DH-11. If no packets are shown the sender has not sent any weather packets the latest 10 day(s).
| Time | Temp. | Humidity | Pressure | Rain* | Wind** | Luminosity | Snow |
|---|---|---|---|---|---|---|---|
| 1777690881 | 5° C | 83% | 1019.1 hPa | - | - | - | - |
| 1777689980 | 3.89° C | 84% | 1018.8 hPa | - | - | - | - |
| 1777689080 | 3.89° C | 84% | 1018.9 hPa | - | - | - | - |
| 1777673772 | 5° C | 82% | 1018.2 hPa | - | - | - | - |
| 1777672872 | 5° C | 82% | 1018.4 hPa | - | - | - | - |
| 1777671069 | 5.56° C | 82% | 1018.4 hPa | - | - | - | - |
| 1777670175 | 5.56° C | 83% | 1018.3 hPa | - | - | - | - |
| 1777668372 | 5° C | 83% | 1018.3 hPa | - | - | - | - |
| 1777667472 | 5° C | 83% | 1018.2 hPa | - | - | - | - |
| 1777666572 | 5° C | 83% | 1018.1 hPa | - | - | - | - |
| 1777665672 | 5° C | 83% | 1017.9 hPa | - | - | - | - |
| 1777664772 | 5.56° C | 83% | 1017.9 hPa | - | - | - | - |
| 1777663872 | 5.56° C | 83% | 1017.9 hPa | - | - | - | - |
| 1777662071 | 5.56° C | 82% | 1017.7 hPa | - | - | - | - |
| 1777660271 | 5.56° C | 81% | 1018 hPa | - | - | - | - |
| 1777659371 | 5.56° C | 82% | 1017.7 hPa | - | - | - | - |
| 1777658471 | 4.44° C | 81% | 1015.9 hPa | - | - | - | - |
| 1777655778 | 5.56° C | 82% | 1017.4 hPa | - | - | - | - |
| 1777654873 | 6.11° C | 81% | 1017.2 hPa | - | - | - | - |
| 1777653970 | 6.11° C | 81% | 1017.3 hPa | - | - | - | - |
| 1777653069 | 6.11° C | 83% | 1017.3 hPa | - | - | - | - |
| 1777652168 | 6.11° C | 81% | 1017 hPa | - | - | - | - |
| 1777651268 | 6.11° C | 80% | 1016.9 hPa | - | - | - | - |
| 1777648568 | 6.11° C | 78% | 1017 hPa | - | - | - | - |
| 1777647669 | 6.11° C | 78% | 1017 hPa | - | - | - | - |
* Rain since midnight (hover to see other rain measurements)
** Current wind speed in m/s (hover to see current wind gust speed)